sensor_id;sensor_type;location;lat;lon;timestamp;P1;durP1;ratioP1;P2;durP2;ratioP2
7545;SDS011;3814;51.454;12.616;2023-02-03T00:00:32;3.75;;;1.52;;
7545;SDS011;3814;51.454;12.616;2023-02-03T00:02:58;4.95;;;1.60;;
7545;SDS011;3814;51.454;12.616;2023-02-03T00:05:23;6.68;;;1.38;;
7545;SDS011;3814;51.454;12.616;2023-02-03T00:07:49;3.80;;;1.45;;
7545;SDS011;3814;51.454;12.616;2023-02-03T00:10:15;5.53;;;1.52;;
7545;SDS011;3814;51.454;12.616;2023-02-03T00:12:45;3.35;;;1.30;;
7545;SDS011;3814;51.454;12.616;2023-02-03T00:15:11;4.13;;;1.10;;
7545;SDS011;3814;51.454;12.616;2023-02-03T00:17:36;3.25;;;1.30;;
7545;SDS011;3814;51.454;12.616;2023-02-03T00:20:01;4.82;;;1.08;;
7545;SDS011;3814;51.454;12.616;2023-02-03T00:22:27;3.08;;;1.35;;
7545;SDS011;3814;51.454;12.616;2023-02-03T00:24:52;5.85;;;1.30;;
7545;SDS011;3814;51.454;12.616;2023-02-03T00:27:17;4.80;;;1.13;;
7545;SDS011;3814;51.454;12.616;2023-02-03T00:29:43;5.50;;;1.35;;
7545;SDS011;3814;51.454;12.616;2023-02-03T00:32:08;4.13;;;1.38;;
7545;SDS011;3814;51.454;12.616;2023-02-03T00:34:33;3.35;;;1.30;;
7545;SDS011;3814;51.454;12.616;2023-02-03T00:36:58;3.83;;;1.60;;
7545;SDS011;3814;51.454;12.616;2023-02-03T00:39:24;6.40;;;1.50;;
7545;SDS011;3814;51.454;12.616;2023-02-03T00:41:49;3.50;;;1.70;;
7545;SDS011;3814;51.454;12.616;2023-02-03T00:44:15;5.25;;;2.10;;
7545;SDS011;3814;51.454;12.616;2023-02-03T00:46:40;5.18;;;1.70;;
7545;SDS011;3814;51.454;12.616;2023-02-03T00:49:05;5.60;;;1.50;;
7545;SDS011;3814;51.454;12.616;2023-02-03T00:51:31;3.53;;;1.80;;
7545;SDS011;3814;51.454;12.616;2023-02-03T00:53:57;8.02;;;2.00;;
7545;SDS011;3814;51.454;12.616;2023-02-03T00:56:22;4.30;;;1.67;;
7545;SDS011;3814;51.454;12.616;2023-02-03T00:58:47;3.08;;;1.40;;
7545;SDS011;3814;51.454;12.616;2023-02-03T01:01:13;3.58;;;1.30;;
7545;SDS011;3814;51.454;12.616;2023-02-03T01:03:38;4.00;;;1.38;;
7545;SDS011;3814;51.454;12.616;2023-02-03T01:06:10;5.18;;;1.20;;
7545;SDS011;3814;51.454;12.616;2023-02-03T01:08:37;4.07;;;1.00;;
7545;SDS011;3814;51.454;12.616;2023-02-03T01:11:06;3.63;;;1.00;;
7545;SDS011;3814;51.454;12.616;2023-02-03T01:13:33;1.25;;;0.82;;
7545;SDS011;3814;51.454;12.616;2023-02-03T01:15:58;2.35;;;0.90;;
7545;SDS011;3814;51.454;12.616;2023-02-03T01:18:23;1.42;;;0.80;;
7545;SDS011;3814;51.454;12.616;2023-02-03T01:20:49;2.88;;;0.88;;
7545;SDS011;3814;51.454;12.616;2023-02-03T01:23:14;3.08;;;0.88;;
7545;SDS011;3814;51.454;12.616;2023-02-03T01:25:39;2.05;;;0.90;;
7545;SDS011;3814;51.454;12.616;2023-02-03T01:28:04;4.28;;;1.10;;
7545;SDS011;3814;51.454;12.616;2023-02-03T01:30:30;2.63;;;0.93;;
7545;SDS011;3814;51.454;12.616;2023-02-03T01:32:55;3.85;;;0.90;;
7545;SDS011;3814;51.454;12.616;2023-02-03T01:35:20;1.92;;;1.10;;
7545;SDS011;3814;51.454;12.616;2023-02-03T01:37:46;3.40;;;1.27;;
7545;SDS011;3814;51.454;12.616;2023-02-03T01:40:11;3.55;;;1.20;;
7545;SDS011;3814;51.454;12.616;2023-02-03T01:42:37;4.05;;;1.30;;
7545;SDS011;3814;51.454;12.616;2023-02-03T01:45:02;3.78;;;1.70;;
7545;SDS011;3814;51.454;12.616;2023-02-03T01:52:35;3.83;;;1.60;;
7545;SDS011;3814;51.454;12.616;2023-02-03T01:55:04;4.03;;;1.58;;
7545;SDS011;3814;51.454;12.616;2023-02-03T01:57:33;3.17;;;1.67;;
7545;SDS011;3814;51.454;12.616;2023-02-03T02:00:08;4.57;;;2.15;;
7545;SDS011;3814;51.454;12.616;2023-02-03T02:02:34;4.30;;;2.13;;
7545;SDS011;3814;51.454;12.616;2023-02-03T02:05:07;6.07;;;2.10;;
7545;SDS011;3814;51.454;12.616;2023-02-03T02:07:37;7.68;;;2.63;;
7545;SDS011;3814;51.454;12.616;2023-02-03T02:10:03;5.88;;;2.70;;
7545;SDS011;3814;51.454;12.616;2023-02-03T02:12:29;4.55;;;2.20;;
7545;SDS011;3814;51.454;12.616;2023-02-03T02:14:54;6.80;;;2.90;;
7545;SDS011;3814;51.454;12.616;2023-02-03T02:20:23;7.47;;;3.30;;
7545;SDS011;3814;51.454;12.616;2023-02-03T02:26:16;8.13;;;3.47;;
7545;SDS011;3814;51.454;12.616;2023-02-03T02:37:13;10.38;;;4.20;;
7545;SDS011;3814;51.454;12.616;2023-02-03T02:42:41;11.82;;;4.70;;
7545;SDS011;3814;51.454;12.616;2023-02-03T02:45:20;9.93;;;4.07;;
7545;SDS011;3814;51.454;12.616;2023-02-03T02:47:50;12.38;;;4.47;;
7545;SDS011;3814;51.454;12.616;2023-02-03T02:50:22;12.45;;;5.32;;
7545;SDS011;3814;51.454;12.616;2023-02-03T02:52:49;10.73;;;4.72;;
7545;SDS011;3814;51.454;12.616;2023-02-03T02:55:27;12.00;;;4.82;;
7545;SDS011;3814;51.454;12.616;2023-02-03T02:57:57;13.40;;;5.40;;
7545;SDS011;3814;51.454;12.616;2023-02-03T03:00:28;12.93;;;4.97;;
7545;SDS011;3814;51.454;12.616;2023-02-03T03:02:55;12.75;;;5.07;;
7545;SDS011;3814;51.454;12.616;2023-02-03T03:05:21;11.80;;;4.88;;
7545;SDS011;3814;51.454;12.616;2023-02-03T03:07:47;11.60;;;5.20;;
7545;SDS011;3814;51.454;12.616;2023-02-03T03:10:17;13.23;;;5.72;;
7545;SDS011;3814;51.454;12.616;2023-02-03T03:12:48;13.73;;;4.90;;
7545;SDS011;3814;51.454;12.616;2023-02-03T03:15:19;14.23;;;5.85;;
7545;SDS011;3814;51.454;12.616;2023-02-03T03:17:53;13.05;;;5.18;;
7545;SDS011;3814;51.454;12.616;2023-02-03T03:20:24;12.25;;;5.50;;
7545;SDS011;3814;51.454;12.616;2023-02-03T03:22:56;12.77;;;5.63;;
7545;SDS011;3814;51.454;12.616;2023-02-03T03:25:25;14.15;;;5.32;;
7545;SDS011;3814;51.454;12.616;2023-02-03T03:27:55;15.02;;;6.30;;
7545;SDS011;3814;51.454;12.616;2023-02-03T03:30:25;15.48;;;5.93;;
7545;SDS011;3814;51.454;12.616;2023-02-03T03:32:51;14.23;;;5.82;;
7545;SDS011;3814;51.454;12.616;2023-02-03T03:35:17;15.43;;;6.07;;
7545;SDS011;3814;51.454;12.616;2023-02-03T03:37:44;15.88;;;6.15;;
7545;SDS011;3814;51.454;12.616;2023-02-03T03:40:16;16.75;;;6.50;;
7545;SDS011;3814;51.454;12.616;2023-02-03T03:42:46;17.73;;;7.10;;
7545;SDS011;3814;51.454;12.616;2023-02-03T03:45:25;20.13;;;6.50;;
7545;SDS011;3814;51.454;12.616;2023-02-03T03:47:55;16.23;;;6.57;;
7545;SDS011;3814;51.454;12.616;2023-02-03T03:50:27;19.50;;;6.85;;
7545;SDS011;3814;51.454;12.616;2023-02-03T03:52:54;18.02;;;7.13;;
7545;SDS011;3814;51.454;12.616;2023-02-03T03:55:22;16.30;;;6.93;;
7545;SDS011;3814;51.454;12.616;2023-02-03T03:57:58;15.50;;;6.53;;
7545;SDS011;3814;51.454;12.616;2023-02-03T04:00:27;18.33;;;7.18;;
7545;SDS011;3814;51.454;12.616;2023-02-03T04:02:54;17.52;;;7.13;;
7545;SDS011;3814;51.454;12.616;2023-02-03T04:05:21;17.73;;;7.22;;
7545;SDS011;3814;51.454;12.616;2023-02-03T04:07:47;16.35;;;6.40;;
7545;SDS011;3814;51.454;12.616;2023-02-03T04:10:15;19.70;;;7.60;;
7545;SDS011;3814;51.454;12.616;2023-02-03T04:12:44;19.63;;;7.47;;
7545;SDS011;3814;51.454;12.616;2023-02-03T04:15:10;20.98;;;7.85;;
7545;SDS011;3814;51.454;12.616;2023-02-03T04:17:35;17.35;;;7.38;;
7545;SDS011;3814;51.454;12.616;2023-02-03T04:20:01;20.55;;;7.70;;
7545;SDS011;3814;51.454;12.616;2023-02-03T04:22:27;18.60;;;7.00;;
7545;SDS011;3814;51.454;12.616;2023-02-03T04:24:53;19.73;;;7.82;;
7545;SDS011;3814;51.454;12.616;2023-02-03T04:27:18;19.40;;;7.15;;
7545;SDS011;3814;51.454;12.616;2023-02-03T04:29:43;18.17;;;6.53;;
7545;SDS011;3814;51.454;12.616;2023-02-03T04:32:11;18.30;;;6.63;;
7545;SDS011;3814;51.454;12.616;2023-02-03T04:34:36;18.42;;;7.10;;
7545;SDS011;3814;51.454;12.616;2023-02-03T04:37:02;17.63;;;6.75;;
7545;SDS011;3814;51.454;12.616;2023-02-03T04:39:27;18.55;;;7.35;;
7545;SDS011;3814;51.454;12.616;2023-02-03T04:41:52;20.15;;;7.50;;
7545;SDS011;3814;51.454;12.616;2023-02-03T04:44:18;18.70;;;6.55;;
7545;SDS011;3814;51.454;12.616;2023-02-03T04:46:43;17.23;;;6.68;;
7545;SDS011;3814;51.454;12.616;2023-02-03T04:49:08;15.73;;;6.30;;
7545;SDS011;3814;51.454;12.616;2023-02-03T04:51:35;18.35;;;6.88;;
7545;SDS011;3814;51.454;12.616;2023-02-03T04:54:00;19.42;;;6.03;;
7545;SDS011;3814;51.454;12.616;2023-02-03T04:56:26;19.35;;;7.25;;
7545;SDS011;3814;51.454;12.616;2023-02-03T04:58:51;18.10;;;7.32;;
7545;SDS011;3814;51.454;12.616;2023-02-03T05:01:16;18.88;;;6.57;;
7545;SDS011;3814;51.454;12.616;2023-02-03T05:03:41;19.67;;;6.93;;
7545;SDS011;3814;51.454;12.616;2023-02-03T05:06:07;18.90;;;6.88;;
7545;SDS011;3814;51.454;12.616;2023-02-03T05:08:32;16.83;;;6.47;;
7545;SDS011;3814;51.454;12.616;2023-02-03T05:10:57;18.35;;;7.15;;
7545;SDS011;3814;51.454;12.616;2023-02-03T05:13:23;20.92;;;7.28;;
7545;SDS011;3814;51.454;12.616;2023-02-03T05:15:48;19.60;;;7.47;;
7545;SDS011;3814;51.454;12.616;2023-02-03T05:18:13;19.40;;;7.40;;
7545;SDS011;3814;51.454;12.616;2023-02-03T05:20:39;21.58;;;7.65;;
7545;SDS011;3814;51.454;12.616;2023-02-03T05:23:04;19.75;;;7.13;;
7545;SDS011;3814;51.454;12.616;2023-02-03T05:25:29;18.83;;;6.82;;
7545;SDS011;3814;51.454;12.616;2023-02-03T05:27:55;20.92;;;7.22;;
7545;SDS011;3814;51.454;12.616;2023-02-03T05:30:20;19.10;;;6.65;;
7545;SDS011;3814;51.454;12.616;2023-02-03T05:32:45;18.48;;;6.72;;
7545;SDS011;3814;51.454;12.616;2023-02-03T05:35:10;17.63;;;7.13;;
7545;SDS011;3814;51.454;12.616;2023-02-03T05:37:36;18.00;;;6.95;;
7545;SDS011;3814;51.454;12.616;2023-02-03T05:40:01;19.25;;;7.15;;
7545;SDS011;3814;51.454;12.616;2023-02-03T05:42:46;18.75;;;7.70;;
7545;SDS011;3814;51.454;12.616;2023-02-03T05:45:12;18.38;;;6.70;;
7545;SDS011;3814;51.454;12.616;2023-02-03T05:47:37;17.70;;;7.43;;
7545;SDS011;3814;51.454;12.616;2023-02-03T05:50:03;20.40;;;7.38;;
7545;SDS011;3814;51.454;12.616;2023-02-03T05:52:28;18.02;;;7.63;;
7545;SDS011;3814;51.454;12.616;2023-02-03T05:54:53;17.25;;;6.97;;
7545;SDS011;3814;51.454;12.616;2023-02-03T05:57:19;21.38;;;7.28;;
7545;SDS011;3814;51.454;12.616;2023-02-03T05:59:44;19.42;;;7.20;;
7545;SDS011;3814;51.454;12.616;2023-02-03T06:02:09;15.10;;;6.28;;
7545;SDS011;3814;51.454;12.616;2023-02-03T06:04:34;18.13;;;6.75;;
7545;SDS011;3814;51.454;12.616;2023-02-03T06:07:00;15.57;;;6.25;;
7545;SDS011;3814;51.454;12.616;2023-02-03T06:09:25;16.90;;;6.10;;
7545;SDS011;3814;51.454;12.616;2023-02-03T06:11:51;15.40;;;6.07;;
7545;SDS011;3814;51.454;12.616;2023-02-03T06:14:16;17.33;;;6.65;;
7545;SDS011;3814;51.454;12.616;2023-02-03T06:16:41;15.77;;;6.05;;
7545;SDS011;3814;51.454;12.616;2023-02-03T06:19:06;14.02;;;6.38;;
7545;SDS011;3814;51.454;12.616;2023-02-03T06:21:32;16.77;;;6.30;;
7545;SDS011;3814;51.454;12.616;2023-02-03T06:23:57;13.95;;;6.30;;
7545;SDS011;3814;51.454;12.616;2023-02-03T06:26:22;14.20;;;5.57;;
7545;SDS011;3814;51.454;12.616;2023-02-03T06:28:49;14.20;;;6.05;;
7545;SDS011;3814;51.454;12.616;2023-02-03T06:31:14;13.32;;;5.95;;
7545;SDS011;3814;51.454;12.616;2023-02-03T06:33:39;15.48;;;6.47;;
7545;SDS011;3814;51.454;12.616;2023-02-03T06:36:05;16.88;;;6.82;;
7545;SDS011;3814;51.454;12.616;2023-02-03T06:38:30;15.63;;;6.47;;
7545;SDS011;3814;51.454;12.616;2023-02-03T06:40:55;12.98;;;5.63;;
7545;SDS011;3814;51.454;12.616;2023-02-03T06:43:21;16.85;;;6.53;;
7545;SDS011;3814;51.454;12.616;2023-02-03T06:45:46;15.80;;;6.63;;
7545;SDS011;3814;51.454;12.616;2023-02-03T06:48:11;19.40;;;6.43;;
7545;SDS011;3814;51.454;12.616;2023-02-03T06:50:37;16.50;;;6.70;;
7545;SDS011;3814;51.454;12.616;2023-02-03T06:53:02;16.75;;;6.93;;
7545;SDS011;3814;51.454;12.616;2023-02-03T06:55:27;15.18;;;6.22;;
7545;SDS011;3814;51.454;12.616;2023-02-03T06:57:52;15.52;;;6.65;;
7545;SDS011;3814;51.454;12.616;2023-02-03T07:00:18;15.38;;;6.43;;
7545;SDS011;3814;51.454;12.616;2023-02-03T07:02:43;14.38;;;5.75;;
7545;SDS011;3814;51.454;12.616;2023-02-03T07:05:09;15.38;;;6.40;;
7545;SDS011;3814;51.454;12.616;2023-02-03T07:07:35;15.95;;;6.78;;
7545;SDS011;3814;51.454;12.616;2023-02-03T07:10:00;13.85;;;6.13;;
7545;SDS011;3814;51.454;12.616;2023-02-03T07:12:26;13.90;;;5.93;;
7545;SDS011;3814;51.454;12.616;2023-02-03T07:14:51;14.50;;;5.97;;
7545;SDS011;3814;51.454;12.616;2023-02-03T07:17:17;14.38;;;5.97;;
7545;SDS011;3814;51.454;12.616;2023-02-03T07:19:42;13.70;;;6.00;;
7545;SDS011;3814;51.454;12.616;2023-02-03T07:22:09;13.30;;;5.40;;
7545;SDS011;3814;51.454;12.616;2023-02-03T07:24:35;11.02;;;4.82;;
7545;SDS011;3814;51.454;12.616;2023-02-03T07:27:00;10.40;;;4.97;;
7545;SDS011;3814;51.454;12.616;2023-02-03T07:29:25;13.20;;;5.43;;
7545;SDS011;3814;51.454;12.616;2023-02-03T07:31:50;11.30;;;4.85;;
7545;SDS011;3814;51.454;12.616;2023-02-03T07:34:16;9.80;;;4.65;;
7545;SDS011;3814;51.454;12.616;2023-02-03T07:36:41;10.77;;;5.30;;
7545;SDS011;3814;51.454;12.616;2023-02-03T07:39:06;11.07;;;4.80;;
7545;SDS011;3814;51.454;12.616;2023-02-03T07:41:32;16.17;;;5.35;;
7545;SDS011;3814;51.454;12.616;2023-02-03T07:43:57;12.65;;;5.25;;
7545;SDS011;3814;51.454;12.616;2023-02-03T07:46:22;12.38;;;4.95;;
7545;SDS011;3814;51.454;12.616;2023-02-03T07:48:48;11.23;;;4.90;;
7545;SDS011;3814;51.454;12.616;2023-02-03T07:51:13;11.85;;;5.05;;
7545;SDS011;3814;51.454;12.616;2023-02-03T07:53:38;12.43;;;5.03;;
7545;SDS011;3814;51.454;12.616;2023-02-03T07:56:04;10.05;;;5.03;;
7545;SDS011;3814;51.454;12.616;2023-02-03T07:58:30;11.05;;;4.68;;
7545;SDS011;3814;51.454;12.616;2023-02-03T08:00:56;11.40;;;5.15;;
7545;SDS011;3814;51.454;12.616;2023-02-03T08:03:22;10.32;;;4.50;;
7545;SDS011;3814;51.454;12.616;2023-02-03T08:05:47;9.07;;;4.47;;
7545;SDS011;3814;51.454;12.616;2023-02-03T08:08:12;10.50;;;4.95;;
7545;SDS011;3814;51.454;12.616;2023-02-03T08:10:37;10.63;;;4.90;;
7545;SDS011;3814;51.454;12.616;2023-02-03T08:13:03;12.40;;;5.20;;
7545;SDS011;3814;51.454;12.616;2023-02-03T08:15:28;10.55;;;4.60;;
7545;SDS011;3814;51.454;12.616;2023-02-03T08:17:53;11.27;;;4.53;;
7545;SDS011;3814;51.454;12.616;2023-02-03T08:20:19;8.95;;;4.40;;
7545;SDS011;3814;51.454;12.616;2023-02-03T08:22:44;11.90;;;5.38;;
7545;SDS011;3814;51.454;12.616;2023-02-03T08:25:10;11.05;;;4.85;;
7545;SDS011;3814;51.454;12.616;2023-02-03T08:27:37;10.60;;;4.70;;
7545;SDS011;3814;51.454;12.616;2023-02-03T08:30:03;11.15;;;4.80;;
7545;SDS011;3814;51.454;12.616;2023-02-03T08:32:29;11.38;;;4.53;;
7545;SDS011;3814;51.454;12.616;2023-02-03T08:34:54;10.27;;;4.63;;
7545;SDS011;3814;51.454;12.616;2023-02-03T08:37:21;10.20;;;4.88;;
7545;SDS011;3814;51.454;12.616;2023-02-03T08:39:48;11.75;;;5.15;;
7545;SDS011;3814;51.454;12.616;2023-02-03T08:42:13;10.90;;;4.70;;
7545;SDS011;3814;51.454;12.616;2023-02-03T08:44:39;7.55;;;4.22;;
7545;SDS011;3814;51.454;12.616;2023-02-03T08:47:04;10.52;;;4.63;;
7545;SDS011;3814;51.454;12.616;2023-02-03T08:49:30;9.23;;;4.60;;
7545;SDS011;3814;51.454;12.616;2023-02-03T08:51:56;10.05;;;3.83;;
7545;SDS011;3814;51.454;12.616;2023-02-03T08:54:23;9.93;;;4.40;;
7545;SDS011;3814;51.454;12.616;2023-02-03T08:56:49;9.93;;;4.30;;
7545;SDS011;3814;51.454;12.616;2023-02-03T08:59:15;8.55;;;4.43;;
7545;SDS011;3814;51.454;12.616;2023-02-03T09:01:40;9.90;;;4.22;;
7545;SDS011;3814;51.454;12.616;2023-02-03T09:04:09;10.15;;;4.18;;
7545;SDS011;3814;51.454;12.616;2023-02-03T09:06:35;10.80;;;4.05;;
7545;SDS011;3814;51.454;12.616;2023-02-03T09:09:00;10.38;;;4.10;;
7545;SDS011;3814;51.454;12.616;2023-02-03T09:11:26;7.47;;;3.65;;
7545;SDS011;3814;51.454;12.616;2023-02-03T09:13:51;7.28;;;3.83;;
7545;SDS011;3814;51.454;12.616;2023-02-03T09:16:17;8.15;;;3.85;;
7545;SDS011;3814;51.454;12.616;2023-02-03T09:18:44;9.90;;;4.10;;
7545;SDS011;3814;51.454;12.616;2023-02-03T09:21:10;8.98;;;3.90;;
7545;SDS011;3814;51.454;12.616;2023-02-03T09:23:37;8.07;;;3.53;;
7545;SDS011;3814;51.454;12.616;2023-02-03T09:26:03;7.97;;;3.80;;
7545;SDS011;3814;51.454;12.616;2023-02-03T09:28:29;9.43;;;4.20;;
7545;SDS011;3814;51.454;12.616;2023-02-03T09:31:02;8.25;;;4.32;;
7545;SDS011;3814;51.454;12.616;2023-02-03T09:33:29;7.07;;;3.20;;
7545;SDS011;3814;51.454;12.616;2023-02-03T09:35:54;9.82;;;3.88;;
7545;SDS011;3814;51.454;12.616;2023-02-03T09:38:20;7.68;;;3.53;;
7545;SDS011;3814;51.454;12.616;2023-02-03T09:40:48;7.72;;;3.40;;
7545;SDS011;3814;51.454;12.616;2023-02-03T09:43:31;7.88;;;3.55;;
7545;SDS011;3814;51.454;12.616;2023-02-03T09:46:06;10.48;;;4.18;;
7545;SDS011;3814;51.454;12.616;2023-02-03T09:48:41;7.45;;;3.33;;
7545;SDS011;3814;51.454;12.616;2023-02-03T09:51:17;6.38;;;3.28;;
7545;SDS011;3814;51.454;12.616;2023-02-03T09:53:47;5.72;;;2.83;;
7545;SDS011;3814;51.454;12.616;2023-02-03T09:56:25;5.95;;;2.90;;
7545;SDS011;3814;51.454;12.616;2023-02-03T09:58:51;7.18;;;3.47;;
7545;SDS011;3814;51.454;12.616;2023-02-03T10:01:17;6.80;;;2.72;;
7545;SDS011;3814;51.454;12.616;2023-02-03T10:06:35;5.88;;;3.00;;
7545;SDS011;3814;51.454;12.616;2023-02-03T10:17:36;4.72;;;2.60;;
7545;SDS011;3814;51.454;12.616;2023-02-03T10:22:35;6.40;;;2.97;;
7545;SDS011;3814;51.454;12.616;2023-02-03T10:27:41;4.35;;;2.47;;
7545;SDS011;3814;51.454;12.616;2023-02-03T10:30:18;4.68;;;2.10;;
7545;SDS011;3814;51.454;12.616;2023-02-03T10:32:47;5.43;;;2.60;;
7545;SDS011;3814;51.454;12.616;2023-02-03T10:35:14;6.10;;;1.85;;
7545;SDS011;3814;51.454;12.616;2023-02-03T10:37:44;4.72;;;2.38;;
7545;SDS011;3814;51.454;12.616;2023-02-03T10:40:12;3.25;;;2.05;;
7545;SDS011;3814;51.454;12.616;2023-02-03T10:42:38;7.13;;;2.20;;
7545;SDS011;3814;51.454;12.616;2023-02-03T10:45:22;5.20;;;2.03;;
7545;SDS011;3814;51.454;12.616;2023-02-03T10:47:49;6.28;;;1.90;;
7545;SDS011;3814;51.454;12.616;2023-02-03T10:50:17;4.25;;;1.90;;
7545;SDS011;3814;51.454;12.616;2023-02-03T10:52:44;3.90;;;2.03;;
7545;SDS011;3814;51.454;12.616;2023-02-03T10:57:47;4.45;;;2.17;;
7545;SDS011;3814;51.454;12.616;2023-02-03T11:02:41;3.28;;;1.80;;
7545;SDS011;3814;51.454;12.616;2023-02-03T11:05:07;4.18;;;2.25;;
7545;SDS011;3814;51.454;12.616;2023-02-03T11:07:33;4.97;;;2.13;;
7545;SDS011;3814;51.454;12.616;2023-02-03T11:09:59;4.07;;;2.20;;
7545;SDS011;3814;51.454;12.616;2023-02-03T11:12:24;5.47;;;2.08;;
7545;SDS011;3814;51.454;12.616;2023-02-03T11:14:50;5.95;;;2.08;;
7545;SDS011;3814;51.454;12.616;2023-02-03T11:17:21;5.38;;;2.33;;
7545;SDS011;3814;51.454;12.616;2023-02-03T11:19:48;5.03;;;2.28;;
7545;SDS011;3814;51.454;12.616;2023-02-03T11:22:27;4.75;;;2.33;;
7545;SDS011;3814;51.454;12.616;2023-02-03T11:25:03;4.53;;;2.13;;
7545;SDS011;3814;51.454;12.616;2023-02-03T11:27:39;4.50;;;2.60;;
7545;SDS011;3814;51.454;12.616;2023-02-03T11:30:22;5.25;;;2.60;;
7545;SDS011;3814;51.454;12.616;2023-02-03T11:32:49;5.55;;;2.40;;
7545;SDS011;3814;51.454;12.616;2023-02-03T11:35:16;5.32;;;2.70;;
7545;SDS011;3814;51.454;12.616;2023-02-03T11:37:43;4.40;;;2.70;;
7545;SDS011;3814;51.454;12.616;2023-02-03T11:40:21;5.93;;;2.35;;
7545;SDS011;3814;51.454;12.616;2023-02-03T11:45:25;3.37;;;2.07;;
7545;SDS011;3814;51.454;12.616;2023-02-03T12:02:47;4.22;;;1.55;;
7545;SDS011;3814;51.454;12.616;2023-02-03T12:05:41;6.15;;;2.10;;
7545;SDS011;3814;51.454;12.616;2023-02-03T12:11:18;2.95;;;1.50;;
7545;SDS011;3814;51.454;12.616;2023-02-03T12:20:02;2.88;;;1.30;;
7545;SDS011;3814;51.454;12.616;2023-02-03T12:31:08;4.10;;;1.05;;
7545;SDS011;3814;51.454;12.616;2023-02-03T12:33:42;3.78;;;1.25;;
7545;SDS011;3814;51.454;12.616;2023-02-03T12:36:17;4.13;;;1.20;;
7545;SDS011;3814;51.454;12.616;2023-02-03T12:41:43;6.32;;;2.13;;
7545;SDS011;3814;51.454;12.616;2023-02-03T12:44:15;7.72;;;1.92;;
7545;SDS011;3814;51.454;12.616;2023-02-03T12:46:49;6.03;;;1.70;;
7545;SDS011;3814;51.454;12.616;2023-02-03T12:49:26;5.15;;;1.70;;
7545;SDS011;3814;51.454;12.616;2023-02-03T12:52:24;5.95;;;2.10;;
7545;SDS011;3814;51.454;12.616;2023-02-03T12:55:00;6.95;;;3.17;;
7545;SDS011;3814;51.454;12.616;2023-02-03T12:57:39;8.80;;;3.72;;
7545;SDS011;3814;51.454;12.616;2023-02-03T13:03:16;11.32;;;4.55;;
7545;SDS011;3814;51.454;12.616;2023-02-03T13:06:31;8.82;;;1.92;;
7545;SDS011;3814;51.454;12.616;2023-02-03T13:09:04;5.47;;;1.67;;
7545;SDS011;3814;51.454;12.616;2023-02-03T13:11:47;9.48;;;1.67;;
7545;SDS011;3814;51.454;12.616;2023-02-03T13:17:36;10.38;;;1.23;;
7545;SDS011;3814;51.454;12.616;2023-02-03T13:19:57;12.93;;;1.80;;
7545;SDS011;3814;51.454;12.616;2023-02-03T13:22:29;7.10;;;1.27;;
7545;SDS011;3814;51.454;12.616;2023-02-03T13:27:49;12.15;;;1.67;;
7545;SDS011;3814;51.454;12.616;2023-02-03T13:42:17;10.45;;;1.40;;
7545;SDS011;3814;51.454;12.616;2023-02-03T13:47:54;11.50;;;2.42;;
7545;SDS011;3814;51.454;12.616;2023-02-03T13:50:27;9.02;;;1.42;;
7545;SDS011;3814;51.454;12.616;2023-02-03T13:52:55;8.85;;;1.52;;
7545;SDS011;3814;51.454;12.616;2023-02-03T13:55:30;10.98;;;1.60;;
7545;SDS011;3814;51.454;12.616;2023-02-03T13:57:58;15.38;;;1.70;;
7545;SDS011;3814;51.454;12.616;2023-02-03T14:03:18;13.48;;;1.60;;
7545;SDS011;3814;51.454;12.616;2023-02-03T14:06:02;15.88;;;2.03;;
7545;SDS011;3814;51.454;12.616;2023-02-03T14:16:34;18.35;;;2.10;;
7545;SDS011;3814;51.454;12.616;2023-02-03T14:19:00;11.88;;;1.90;;
7545;SDS011;3814;51.454;12.616;2023-02-03T14:21:26;9.35;;;1.83;;
7545;SDS011;3814;51.454;12.616;2023-02-03T14:23:56;11.07;;;1.80;;
7545;SDS011;3814;51.454;12.616;2023-02-03T14:29:25;16.55;;;2.42;;
7545;SDS011;3814;51.454;12.616;2023-02-03T14:31:55;10.85;;;2.20;;
7545;SDS011;3814;51.454;12.616;2023-02-03T14:34:32;10.10;;;2.40;;
7545;SDS011;3814;51.454;12.616;2023-02-03T14:37:09;10.77;;;2.25;;
7545;SDS011;3814;51.454;12.616;2023-02-03T14:39:39;13.15;;;2.80;;
7545;SDS011;3814;51.454;12.616;2023-02-03T14:47:57;12.35;;;1.73;;
7545;SDS011;3814;51.454;12.616;2023-02-03T14:59:22;5.30;;;1.60;;
7545;SDS011;3814;51.454;12.616;2023-02-03T15:06:46;10.87;;;1.70;;
7545;SDS011;3814;51.454;12.616;2023-02-03T15:12:25;9.63;;;1.60;;
7545;SDS011;3814;51.454;12.616;2023-02-03T15:14:51;10.07;;;1.30;;
7545;SDS011;3814;51.454;12.616;2023-02-03T15:19:51;9.75;;;1.50;;
7545;SDS011;3814;51.454;12.616;2023-02-03T15:22:26;11.38;;;1.30;;
7545;SDS011;3814;51.454;12.616;2023-02-03T15:25:00;6.68;;;1.40;;
7545;SDS011;3814;51.454;12.616;2023-02-03T15:27:29;10.00;;;1.33;;
7545;SDS011;3814;51.454;12.616;2023-02-03T15:29:55;8.43;;;1.20;;
7545;SDS011;3814;51.454;12.616;2023-02-03T15:32:24;9.77;;;1.38;;
7545;SDS011;3814;51.454;12.616;2023-02-03T15:34:54;8.52;;;1.63;;
7545;SDS011;3814;51.454;12.616;2023-02-03T15:37:30;9.73;;;1.95;;
7545;SDS011;3814;51.454;12.616;2023-02-03T15:40:04;10.07;;;1.92;;
7545;SDS011;3814;51.454;12.616;2023-02-03T15:48:14;13.10;;;2.33;;
7545;SDS011;3814;51.454;12.616;2023-02-03T15:50:45;13.98;;;1.70;;
7545;SDS011;3814;51.454;12.616;2023-02-03T15:53:27;13.13;;;1.52;;
7545;SDS011;3814;51.454;12.616;2023-02-03T15:55:58;17.10;;;2.70;;
7545;SDS011;3814;51.454;12.616;2023-02-03T15:58:29;15.63;;;1.95;;
7545;SDS011;3814;51.454;12.616;2023-02-03T16:01:01;12.20;;;1.98;;
7545;SDS011;3814;51.454;12.616;2023-02-03T16:03:32;12.13;;;1.83;;
7545;SDS011;3814;51.454;12.616;2023-02-03T16:06:07;12.18;;;1.80;;
7545;SDS011;3814;51.454;12.616;2023-02-03T16:08:35;13.23;;;1.77;;
7545;SDS011;3814;51.454;12.616;2023-02-03T16:11:48;12.45;;;1.83;;
7545;SDS011;3814;51.454;12.616;2023-02-03T16:13:57;6.57;;;1.70;;
7545;SDS011;3814;51.454;12.616;2023-02-03T16:16:25;13.43;;;1.73;;
7545;SDS011;3814;51.454;12.616;2023-02-03T16:18:57;11.32;;;2.03;;
7545;SDS011;3814;51.454;12.616;2023-02-03T16:21:32;10.95;;;1.60;;
7545;SDS011;3814;51.454;12.616;2023-02-03T16:24:00;8.57;;;1.83;;
7545;SDS011;3814;51.454;12.616;2023-02-03T16:26:27;11.85;;;1.75;;
7545;SDS011;3814;51.454;12.616;2023-02-03T16:28:56;9.75;;;1.50;;
7545;SDS011;3814;51.454;12.616;2023-02-03T16:31:52;12.23;;;1.45;;
7545;SDS011;3814;51.454;12.616;2023-02-03T16:34:36;12.65;;;1.50;;
7545;SDS011;3814;51.454;12.616;2023-02-03T16:37:33;9.50;;;1.50;;
7545;SDS011;3814;51.454;12.616;2023-02-03T16:40:19;11.18;;;1.48;;
7545;SDS011;3814;51.454;12.616;2023-02-03T16:43:04;11.88;;;1.50;;
7545;SDS011;3814;51.454;12.616;2023-02-03T16:45:56;11.70;;;1.60;;
7545;SDS011;3814;51.454;12.616;2023-02-03T16:48:51;7.97;;;1.40;;
7545;SDS011;3814;51.454;12.616;2023-02-03T16:51:40;9.82;;;1.50;;
7545;SDS011;3814;51.454;12.616;2023-02-03T16:54:11;12.57;;;2.10;;
7545;SDS011;3814;51.454;12.616;2023-02-03T16:56:37;9.95;;;1.67;;
7545;SDS011;3814;51.454;12.616;2023-02-03T16:59:03;7.82;;;1.13;;
7545;SDS011;3814;51.454;12.616;2023-02-03T17:01:28;10.75;;;1.77;;
7545;SDS011;3814;51.454;12.616;2023-02-03T17:03:54;13.07;;;1.40;;
7545;SDS011;3814;51.454;12.616;2023-02-03T17:06:20;12.32;;;1.60;;
7545;SDS011;3814;51.454;12.616;2023-02-03T17:08:45;8.88;;;1.50;;
7545;SDS011;3814;51.454;12.616;2023-02-03T17:11:14;11.10;;;1.80;;
7545;SDS011;3814;51.454;12.616;2023-02-03T17:16:17;9.48;;;1.38;;
7545;SDS011;3814;51.454;12.616;2023-02-03T17:18:44;12.07;;;1.58;;
7545;SDS011;3814;51.454;12.616;2023-02-03T17:21:11;12.55;;;1.52;;
7545;SDS011;3814;51.454;12.616;2023-02-03T17:23:38;12.27;;;1.58;;
7545;SDS011;3814;51.454;12.616;2023-02-03T17:26:04;9.63;;;1.27;;
7545;SDS011;3814;51.454;12.616;2023-02-03T17:28:30;10.00;;;1.45;;
7545;SDS011;3814;51.454;12.616;2023-02-03T17:30:58;9.27;;;1.50;;
7545;SDS011;3814;51.454;12.616;2023-02-03T17:36:01;8.77;;;1.63;;
7545;SDS011;3814;51.454;12.616;2023-02-03T17:38:27;11.57;;;1.50;;